sensor_id;sensor_type;location;lat;lon;timestamp;temperature;humidity
7388;DHT22;3735;50.136;11.062;2023-07-16T00:01:40;19.00;99.90
7388;DHT22;3735;50.136;11.062;2023-07-16T00:04:06;19.00;99.90
7388;DHT22;3735;50.136;11.062;2023-07-16T00:06:32;19.00;99.90
7388;DHT22;3735;50.136;11.062;2023-07-16T00:08:58;19.00;99.90
7388;DHT22;3735;50.136;11.062;2023-07-16T00:11:25;19.00;99.90
7388;DHT22;3735;50.136;11.062;2023-07-16T00:13:50;19.00;99.90
7388;DHT22;3735;50.136;11.062;2023-07-16T00:16:16;19.00;99.90
7388;DHT22;3735;50.136;11.062;2023-07-16T00:18:44;19.00;99.90
7388;DHT22;3735;50.136;11.062;2023-07-16T00:21:10;18.90;99.90
7388;DHT22;3735;50.136;11.062;2023-07-16T00:23:36;18.90;99.90
7388;DHT22;3735;50.136;11.062;2023-07-16T00:26:02;18.90;99.90
7388;DHT22;3735;50.136;11.062;2023-07-16T00:28:29;18.90;99.90
7388;DHT22;3735;50.136;11.062;2023-07-16T00:30:55;18.80;99.90
7388;DHT22;3735;50.136;11.062;2023-07-16T00:33:20;18.80;99.90
7388;DHT22;3735;50.136;11.062;2023-07-16T00:35:50;18.80;99.90
7388;DHT22;3735;50.136;11.062;2023-07-16T00:38:19;18.80;99.90
7388;DHT22;3735;50.136;11.062;2023-07-16T00:40:48;18.80;99.90
7388;DHT22;3735;50.136;11.062;2023-07-16T00:43:14;18.70;99.90
7388;DHT22;3735;50.136;11.062;2023-07-16T00:45:41;18.70;99.90
7388;DHT22;3735;50.136;11.062;2023-07-16T00:48:10;18.80;99.90
7388;DHT22;3735;50.136;11.062;2023-07-16T00:50:38;18.80;99.90
7388;DHT22;3735;50.136;11.062;2023-07-16T00:53:06;18.80;99.90
7388;DHT22;3735;50.136;11.062;2023-07-16T00:55:34;18.80;99.90
7388;DHT22;3735;50.136;11.062;2023-07-16T00:58:06;18.70;99.90
7388;DHT22;3735;50.136;11.062;2023-07-16T01:00:33;18.70;99.90
7388;DHT22;3735;50.136;11.062;2023-07-16T01:03:07;18.60;99.90
7388;DHT22;3735;50.136;11.062;2023-07-16T01:05:57;18.70;99.90
7388;DHT22;3735;50.136;11.062;2023-07-16T01:08:43;18.70;99.90
7388;DHT22;3735;50.136;11.062;2023-07-16T01:11:12;18.70;99.90
7388;DHT22;3735;50.136;11.062;2023-07-16T01:13:39;18.80;99.90
7388;DHT22;3735;50.136;11.062;2023-07-16T01:16:06;18.80;99.90
7388;DHT22;3735;50.136;11.062;2023-07-16T01:18:31;18.90;99.90
7388;DHT22;3735;50.136;11.062;2023-07-16T01:20:58;18.90;99.90
7388;DHT22;3735;50.136;11.062;2023-07-16T01:29:46;19.00;99.90
7388;DHT22;3735;50.136;11.062;2023-07-16T01:32:17;19.00;99.90
7388;DHT22;3735;50.136;11.062;2023-07-16T01:34:43;19.00;99.90
7388;DHT22;3735;50.136;11.062;2023-07-16T01:37:10;19.00;99.90
7388;DHT22;3735;50.136;11.062;2023-07-16T01:39:36;18.90;99.90
7388;DHT22;3735;50.136;11.062;2023-07-16T01:42:03;18.90;99.90
7388;DHT22;3735;50.136;11.062;2023-07-16T01:44:28;18.80;99.90
7388;DHT22;3735;50.136;11.062;2023-07-16T01:47:11;18.80;99.90
7388;DHT22;3735;50.136;11.062;2023-07-16T01:49:38;18.80;99.90
7388;DHT22;3735;50.136;11.062;2023-07-16T01:52:05;18.70;99.90
7388;DHT22;3735;50.136;11.062;2023-07-16T01:54:32;18.70;99.90
7388;DHT22;3735;50.136;11.062;2023-07-16T01:56:58;18.70;99.90
7388;DHT22;3735;50.136;11.062;2023-07-16T01:59:24;18.70;99.90
7388;DHT22;3735;50.136;11.062;2023-07-16T02:01:49;18.60;99.90
7388;DHT22;3735;50.136;11.062;2023-07-16T02:04:15;18.60;99.90
7388;DHT22;3735;50.136;11.062;2023-07-16T02:06:41;18.60;99.90
7388;DHT22;3735;50.136;11.062;2023-07-16T02:09:08;18.60;99.90
7388;DHT22;3735;50.136;11.062;2023-07-16T02:11:35;18.60;99.90
7388;DHT22;3735;50.136;11.062;2023-07-16T02:14:01;18.60;99.90
7388;DHT22;3735;50.136;11.062;2023-07-16T02:16:26;18.60;99.90
7388;DHT22;3735;50.136;11.062;2023-07-16T02:18:52;18.60;99.90
7388;DHT22;3735;50.136;11.062;2023-07-16T02:21:18;18.60;99.90
7388;DHT22;3735;50.136;11.062;2023-07-16T02:23:44;18.60;99.90
7388;DHT22;3735;50.136;11.062;2023-07-16T02:26:09;18.50;99.90
7388;DHT22;3735;50.136;11.062;2023-07-16T02:28:35;18.50;99.90
7388;DHT22;3735;50.136;11.062;2023-07-16T02:31:03;18.50;99.90
7388;DHT22;3735;50.136;11.062;2023-07-16T02:33:28;18.50;99.90
7388;DHT22;3735;50.136;11.062;2023-07-16T02:35:54;18.50;99.90
7388;DHT22;3735;50.136;11.062;2023-07-16T02:38:20;18.40;99.90
7388;DHT22;3735;50.136;11.062;2023-07-16T02:40:46;18.40;99.90
7388;DHT22;3735;50.136;11.062;2023-07-16T02:43:13;18.30;99.90
7388;DHT22;3735;50.136;11.062;2023-07-16T02:45:40;18.30;99.90
7388;DHT22;3735;50.136;11.062;2023-07-16T02:48:06;18.30;99.90
7388;DHT22;3735;50.136;11.062;2023-07-16T02:50:39;18.20;99.90
7388;DHT22;3735;50.136;11.062;2023-07-16T02:53:05;18.20;99.90
7388;DHT22;3735;50.136;11.062;2023-07-16T02:55:33;18.20;99.90
7388;DHT22;3735;50.136;11.062;2023-07-16T02:58:00;18.20;99.90
7388;DHT22;3735;50.136;11.062;2023-07-16T03:00:32;18.20;99.90
7388;DHT22;3735;50.136;11.062;2023-07-16T03:03:00;18.10;99.90
7388;DHT22;3735;50.136;11.062;2023-07-16T03:05:28;18.20;99.90
7388;DHT22;3735;50.136;11.062;2023-07-16T03:07:54;18.20;99.90
7388;DHT22;3735;50.136;11.062;2023-07-16T03:10:21;18.20;99.90
7388;DHT22;3735;50.136;11.062;2023-07-16T03:12:48;18.20;99.90
7388;DHT22;3735;50.136;11.062;2023-07-16T03:15:14;18.20;99.90
7388;DHT22;3735;50.136;11.062;2023-07-16T03:17:40;18.30;99.90
7388;DHT22;3735;50.136;11.062;2023-07-16T03:20:06;18.30;99.90
7388;DHT22;3735;50.136;11.062;2023-07-16T03:22:32;18.40;99.90
7388;DHT22;3735;50.136;11.062;2023-07-16T03:24:58;18.40;99.90
7388;DHT22;3735;50.136;11.062;2023-07-16T03:27:24;18.50;99.90
7388;DHT22;3735;50.136;11.062;2023-07-16T03:29:50;18.50;99.90
7388;DHT22;3735;50.136;11.062;2023-07-16T03:32:15;18.50;99.90
7388;DHT22;3735;50.136;11.062;2023-07-16T03:34:41;18.50;99.90
7388;DHT22;3735;50.136;11.062;2023-07-16T03:37:07;18.50;99.90
7388;DHT22;3735;50.136;11.062;2023-07-16T03:39:33;18.50;99.90
7388;DHT22;3735;50.136;11.062;2023-07-16T03:41:58;18.50;99.90
7388;DHT22;3735;50.136;11.062;2023-07-16T03:44:24;18.50;99.90
7388;DHT22;3735;50.136;11.062;2023-07-16T03:46:50;18.50;99.90
7388;DHT22;3735;50.136;11.062;2023-07-16T03:49:15;18.40;99.90
7388;DHT22;3735;50.136;11.062;2023-07-16T03:51:41;18.40;99.90
7388;DHT22;3735;50.136;11.062;2023-07-16T03:54:07;18.50;99.90
7388;DHT22;3735;50.136;11.062;2023-07-16T03:56:32;18.50;99.90
7388;DHT22;3735;50.136;11.062;2023-07-16T03:58:58;18.50;99.90
7388;DHT22;3735;50.136;11.062;2023-07-16T04:01:24;18.60;99.90
7388;DHT22;3735;50.136;11.062;2023-07-16T04:03:50;18.60;99.90
7388;DHT22;3735;50.136;11.062;2023-07-16T04:06:15;18.60;99.90
7388;DHT22;3735;50.136;11.062;2023-07-16T04:08:41;18.60;99.90
7388;DHT22;3735;50.136;11.062;2023-07-16T04:11:07;18.60;99.90
7388;DHT22;3735;50.136;11.062;2023-07-16T04:13:34;18.60;99.90
7388;DHT22;3735;50.136;11.062;2023-07-16T04:15:59;18.60;99.90
7388;DHT22;3735;50.136;11.062;2023-07-16T04:18:25;18.60;99.90
7388;DHT22;3735;50.136;11.062;2023-07-16T04:20:52;18.60;99.90
7388;DHT22;3735;50.136;11.062;2023-07-16T04:23:18;18.60;99.90
7388;DHT22;3735;50.136;11.062;2023-07-16T04:25:44;18.50;99.90
7388;DHT22;3735;50.136;11.062;2023-07-16T04:28:11;18.50;99.90
7388;DHT22;3735;50.136;11.062;2023-07-16T04:30:37;18.40;99.90
7388;DHT22;3735;50.136;11.062;2023-07-16T04:33:06;18.50;99.90
7388;DHT22;3735;50.136;11.062;2023-07-16T04:35:32;18.60;99.90
7388;DHT22;3735;50.136;11.062;2023-07-16T04:37:59;18.70;99.90
7388;DHT22;3735;50.136;11.062;2023-07-16T04:40:24;18.80;99.90
7388;DHT22;3735;50.136;11.062;2023-07-16T04:42:50;19.00;99.90
7388;DHT22;3735;50.136;11.062;2023-07-16T04:45:16;19.00;99.90
7388;DHT22;3735;50.136;11.062;2023-07-16T04:47:42;19.10;99.90
7388;DHT22;3735;50.136;11.062;2023-07-16T04:50:08;19.10;99.90
7388;DHT22;3735;50.136;11.062;2023-07-16T04:52:34;19.10;99.90
7388;DHT22;3735;50.136;11.062;2023-07-16T04:55:00;19.30;99.90
7388;DHT22;3735;50.136;11.062;2023-07-16T04:57:26;19.40;99.90
7388;DHT22;3735;50.136;11.062;2023-07-16T04:59:51;19.40;99.90
7388;DHT22;3735;50.136;11.062;2023-07-16T05:02:17;19.50;99.90
7388;DHT22;3735;50.136;11.062;2023-07-16T05:04:43;19.50;99.90
7388;DHT22;3735;50.136;11.062;2023-07-16T05:07:10;19.50;99.90
7388;DHT22;3735;50.136;11.062;2023-07-16T05:09:36;19.50;99.90
7388;DHT22;3735;50.136;11.062;2023-07-16T05:12:02;19.70;99.90
7388;DHT22;3735;50.136;11.062;2023-07-16T05:14:28;19.70;99.90
7388;DHT22;3735;50.136;11.062;2023-07-16T05:16:54;19.60;99.90
7388;DHT22;3735;50.136;11.062;2023-07-16T05:19:21;19.50;99.90
7388;DHT22;3735;50.136;11.062;2023-07-16T05:21:47;19.40;99.90
7388;DHT22;3735;50.136;11.062;2023-07-16T05:24:13;19.40;99.90
7388;DHT22;3735;50.136;11.062;2023-07-16T05:26:39;19.40;99.90
7388;DHT22;3735;50.136;11.062;2023-07-16T05:29:05;19.60;99.90
7388;DHT22;3735;50.136;11.062;2023-07-16T05:31:30;19.50;99.90
7388;DHT22;3735;50.136;11.062;2023-07-16T05:33:56;19.50;99.90
7388;DHT22;3735;50.136;11.062;2023-07-16T05:36:22;19.60;99.90
7388;DHT22;3735;50.136;11.062;2023-07-16T05:38:48;19.70;99.90
7388;DHT22;3735;50.136;11.062;2023-07-16T05:41:13;19.60;99.90
7388;DHT22;3735;50.136;11.062;2023-07-16T05:43:39;19.60;99.90
7388;DHT22;3735;50.136;11.062;2023-07-16T05:46:05;19.50;99.90
7388;DHT22;3735;50.136;11.062;2023-07-16T05:48:31;19.40;99.90
7388;DHT22;3735;50.136;11.062;2023-07-16T05:50:57;19.30;99.90
7388;DHT22;3735;50.136;11.062;2023-07-16T05:53:23;19.30;99.90
7388;DHT22;3735;50.136;11.062;2023-07-16T05:55:48;19.20;99.90
7388;DHT22;3735;50.136;11.062;2023-07-16T05:58:17;19.30;99.90
7388;DHT22;3735;50.136;11.062;2023-07-16T06:00:43;19.40;99.90
7388;DHT22;3735;50.136;11.062;2023-07-16T06:03:09;19.60;99.90
7388;DHT22;3735;50.136;11.062;2023-07-16T06:05:35;19.90;99.90
7388;DHT22;3735;50.136;11.062;2023-07-16T06:08:02;20.10;99.90
7388;DHT22;3735;50.136;11.062;2023-07-16T06:10:28;20.30;99.90
7388;DHT22;3735;50.136;11.062;2023-07-16T06:12:54;20.60;99.90
7388;DHT22;3735;50.136;11.062;2023-07-16T06:15:20;20.70;99.90
7388;DHT22;3735;50.136;11.062;2023-07-16T06:17:45;21.50;99.90
7388;DHT22;3735;50.136;11.062;2023-07-16T06:20:11;23.10;99.90
7388;DHT22;3735;50.136;11.062;2023-07-16T06:22:37;24.30;99.90
7388;DHT22;3735;50.136;11.062;2023-07-16T06:25:03;24.10;99.90
7388;DHT22;3735;50.136;11.062;2023-07-16T06:27:30;23.30;99.90
7388;DHT22;3735;50.136;11.062;2023-07-16T06:29:55;23.10;99.90
7388;DHT22;3735;50.136;11.062;2023-07-16T06:32:21;23.50;99.90
7388;DHT22;3735;50.136;11.062;2023-07-16T06:34:47;24.10;99.90
7388;DHT22;3735;50.136;11.062;2023-07-16T06:37:13;23.80;99.90
7388;DHT22;3735;50.136;11.062;2023-07-16T06:39:39;23.20;99.90
7388;DHT22;3735;50.136;11.062;2023-07-16T06:42:05;22.60;99.90
7388;DHT22;3735;50.136;11.062;2023-07-16T06:44:31;22.20;99.90
7388;DHT22;3735;50.136;11.062;2023-07-16T06:46:56;21.90;99.90
7388;DHT22;3735;50.136;11.062;2023-07-16T06:49:23;21.90;99.90
7388;DHT22;3735;50.136;11.062;2023-07-16T06:51:49;21.90;99.90
7388;DHT22;3735;50.136;11.062;2023-07-16T06:54:15;22.10;99.90
7388;DHT22;3735;50.136;11.062;2023-07-16T06:56:40;22.00;99.90
7388;DHT22;3735;50.136;11.062;2023-07-16T06:59:06;22.10;99.90
7388;DHT22;3735;50.136;11.062;2023-07-16T07:01:32;22.50;99.90
7388;DHT22;3735;50.136;11.062;2023-07-16T07:03:58;22.70;99.90
7388;DHT22;3735;50.136;11.062;2023-07-16T07:06:23;23.30;99.90
7388;DHT22;3735;50.136;11.062;2023-07-16T07:08:49;23.20;99.90
7388;DHT22;3735;50.136;11.062;2023-07-16T07:11:15;22.60;99.90
7388;DHT22;3735;50.136;11.062;2023-07-16T07:13:41;23.00;99.90
7388;DHT22;3735;50.136;11.062;2023-07-16T07:16:07;24.60;99.90
7388;DHT22;3735;50.136;11.062;2023-07-16T07:18:33;25.40;99.90
7388;DHT22;3735;50.136;11.062;2023-07-16T07:20:59;26.10;99.90
7388;DHT22;3735;50.136;11.062;2023-07-16T07:23:24;27.10;99.90
7388;DHT22;3735;50.136;11.062;2023-07-16T07:25:51;27.30;99.90
7388;DHT22;3735;50.136;11.062;2023-07-16T07:28:18;26.60;99.90
7388;DHT22;3735;50.136;11.062;2023-07-16T07:30:45;26.00;99.90
7388;DHT22;3735;50.136;11.062;2023-07-16T07:33:12;26.50;99.90
7388;DHT22;3735;50.136;11.062;2023-07-16T07:35:38;26.50;99.90
7388;DHT22;3735;50.136;11.062;2023-07-16T07:38:03;25.60;99.90
7388;DHT22;3735;50.136;11.062;2023-07-16T07:40:29;24.60;99.90
7388;DHT22;3735;50.136;11.062;2023-07-16T07:42:55;23.60;99.90
7388;DHT22;3735;50.136;11.062;2023-07-16T07:45:21;22.70;99.90
7388;DHT22;3735;50.136;11.062;2023-07-16T07:47:46;22.30;99.90
7388;DHT22;3735;50.136;11.062;2023-07-16T07:50:14;22.00;99.90
7388;DHT22;3735;50.136;11.062;2023-07-16T07:52:40;21.60;99.90
7388;DHT22;3735;50.136;11.062;2023-07-16T07:55:06;22.30;99.90
7388;DHT22;3735;50.136;11.062;2023-07-16T07:57:32;22.40;99.90
7388;DHT22;3735;50.136;11.062;2023-07-16T07:59:57;22.10;99.90
7388;DHT22;3735;50.136;11.062;2023-07-16T08:02:26;21.30;99.90
7388;DHT22;3735;50.136;11.062;2023-07-16T08:04:53;20.80;99.90
7388;DHT22;3735;50.136;11.062;2023-07-16T08:07:20;20.60;99.90
7388;DHT22;3735;50.136;11.062;2023-07-16T08:09:47;20.70;99.90
7388;DHT22;3735;50.136;11.062;2023-07-16T08:12:14;20.80;99.90
7388;DHT22;3735;50.136;11.062;2023-07-16T08:14:40;21.20;99.90
7388;DHT22;3735;50.136;11.062;2023-07-16T08:17:07;21.40;99.90
7388;DHT22;3735;50.136;11.062;2023-07-16T08:19:33;21.70;99.90
7388;DHT22;3735;50.136;11.062;2023-07-16T08:21:59;23.00;99.90
7388;DHT22;3735;50.136;11.062;2023-07-16T08:24:25;24.20;99.90
7388;DHT22;3735;50.136;11.062;2023-07-16T08:26:51;24.20;99.90
7388;DHT22;3735;50.136;11.062;2023-07-16T08:29:17;23.60;99.90
7388;DHT22;3735;50.136;11.062;2023-07-16T08:31:43;23.20;99.90
7388;DHT22;3735;50.136;11.062;2023-07-16T08:34:08;23.20;99.90
7388;DHT22;3735;50.136;11.062;2023-07-16T08:36:35;23.10;99.90
7388;DHT22;3735;50.136;11.062;2023-07-16T08:39:03;23.10;99.90
7388;DHT22;3735;50.136;11.062;2023-07-16T08:41:29;25.00;99.90
7388;DHT22;3735;50.136;11.062;2023-07-16T08:43:56;26.80;99.90
7388;DHT22;3735;50.136;11.062;2023-07-16T08:46:22;28.70;99.90
7388;DHT22;3735;50.136;11.062;2023-07-16T08:48:49;29.40;99.90
7388;DHT22;3735;50.136;11.062;2023-07-16T08:51:16;28.40;99.90
7388;DHT22;3735;50.136;11.062;2023-07-16T08:53:43;27.00;99.90
7388;DHT22;3735;50.136;11.062;2023-07-16T08:56:09;26.00;99.90
7388;DHT22;3735;50.136;11.062;2023-07-16T08:58:35;25.10;99.90
7388;DHT22;3735;50.136;11.062;2023-07-16T09:01:03;24.20;99.90
7388;DHT22;3735;50.136;11.062;2023-07-16T09:03:30;23.60;99.90
7388;DHT22;3735;50.136;11.062;2023-07-16T09:05:56;23.60;99.90
7388;DHT22;3735;50.136;11.062;2023-07-16T09:08:22;24.80;99.90
7388;DHT22;3735;50.136;11.062;2023-07-16T09:10:54;25.90;99.90
7388;DHT22;3735;50.136;11.062;2023-07-16T09:13:21;25.10;99.90
7388;DHT22;3735;50.136;11.062;2023-07-16T09:15:53;24.50;99.90
7388;DHT22;3735;50.136;11.062;2023-07-16T09:18:21;23.90;99.90
7388;DHT22;3735;50.136;11.062;2023-07-16T09:20:53;24.60;99.90
7388;DHT22;3735;50.136;11.062;2023-07-16T09:23:20;26.70;99.90
7388;DHT22;3735;50.136;11.062;2023-07-16T09:25:46;26.70;99.90
7388;DHT22;3735;50.136;11.062;2023-07-16T09:28:12;25.70;99.90
7388;DHT22;3735;50.136;11.062;2023-07-16T09:30:37;25.20;99.90
7388;DHT22;3735;50.136;11.062;2023-07-16T09:33:19;26.30;99.90
7388;DHT22;3735;50.136;11.062;2023-07-16T09:35:48;26.90;99.90
7388;DHT22;3735;50.136;11.062;2023-07-16T09:38:16;26.10;99.90
7388;DHT22;3735;50.136;11.062;2023-07-16T09:40:43;25.30;99.90
7388;DHT22;3735;50.136;11.062;2023-07-16T09:43:10;24.60;99.90
7388;DHT22;3735;50.136;11.062;2023-07-16T09:45:37;24.00;99.90
7388;DHT22;3735;50.136;11.062;2023-07-16T09:48:03;23.70;99.90
7388;DHT22;3735;50.136;11.062;2023-07-16T09:50:32;23.60;99.90
7388;DHT22;3735;50.136;11.062;2023-07-16T09:53:00;25.40;99.90
7388;DHT22;3735;50.136;11.062;2023-07-16T09:55:28;28.00;99.90
7388;DHT22;3735;50.136;11.062;2023-07-16T09:57:58;30.00;99.90
7388;DHT22;3735;50.136;11.062;2023-07-16T10:00:26;31.10;99.90
7388;DHT22;3735;50.136;11.062;2023-07-16T10:02:53;30.10;99.90
7388;DHT22;3735;50.136;11.062;2023-07-16T10:05:27;29.10;99.90
7388;DHT22;3735;50.136;11.062;2023-07-16T10:07:56;28.80;99.90
7388;DHT22;3735;50.136;11.062;2023-07-16T10:10:40;29.80;99.90
7388;DHT22;3735;50.136;11.062;2023-07-16T10:13:08;30.80;99.90
7388;DHT22;3735;50.136;11.062;2023-07-16T10:15:38;30.10;99.90
7388;DHT22;3735;50.136;11.062;2023-07-16T10:18:05;28.70;99.90
7388;DHT22;3735;50.136;11.062;2023-07-16T10:20:33;27.80;99.90
7388;DHT22;3735;50.136;11.062;2023-07-16T10:23:15;27.20;99.90
7388;DHT22;3735;50.136;11.062;2023-07-16T10:25:58;26.20;99.90
7388;DHT22;3735;50.136;11.062;2023-07-16T10:28:25;25.50;99.90
7388;DHT22;3735;50.136;11.062;2023-07-16T10:30:51;24.80;99.90
7388;DHT22;3735;50.136;11.062;2023-07-16T10:33:17;24.40;99.90
7388;DHT22;3735;50.136;11.062;2023-07-16T10:35:44;24.40;99.90
7388;DHT22;3735;50.136;11.062;2023-07-16T10:38:11;26.30;99.90
7388;DHT22;3735;50.136;11.062;2023-07-16T10:40:44;28.20;99.90
7388;DHT22;3735;50.136;11.062;2023-07-16T10:43:14;27.90;99.90
7388;DHT22;3735;50.136;11.062;2023-07-16T10:45:41;27.80;99.90
7388;DHT22;3735;50.136;11.062;2023-07-16T10:48:07;27.70;99.90
7388;DHT22;3735;50.136;11.062;2023-07-16T10:50:34;28.30;99.90
7388;DHT22;3735;50.136;11.062;2023-07-16T10:53:01;29.50;99.90
7388;DHT22;3735;50.136;11.062;2023-07-16T10:55:28;29.90;99.90
7388;DHT22;3735;50.136;11.062;2023-07-16T10:57:57;29.10;99.90
7388;DHT22;3735;50.136;11.062;2023-07-16T11:00:23;29.70;99.90
7388;DHT22;3735;50.136;11.062;2023-07-16T11:02:50;29.30;99.90
7388;DHT22;3735;50.136;11.062;2023-07-16T11:05:17;28.90;99.90
7388;DHT22;3735;50.136;11.062;2023-07-16T11:07:45;28.70;99.90
7388;DHT22;3735;50.136;11.062;2023-07-16T11:10:17;28.30;99.90
7388;DHT22;3735;50.136;11.062;2023-07-16T11:12:44;27.80;99.90
7388;DHT22;3735;50.136;11.062;2023-07-16T11:15:10;27.60;99.90
7388;DHT22;3735;50.136;11.062;2023-07-16T11:17:39;29.20;99.90
7388;DHT22;3735;50.136;11.062;2023-07-16T11:20:07;29.90;99.90
7388;DHT22;3735;50.136;11.062;2023-07-16T11:22:37;29.70;99.90
7388;DHT22;3735;50.136;11.062;2023-07-16T11:25:04;30.20;99.90
7388;DHT22;3735;50.136;11.062;2023-07-16T11:27:36;29.90;99.90
7388;DHT22;3735;50.136;11.062;2023-07-16T11:30:07;28.80;99.90
7388;DHT22;3735;50.136;11.062;2023-07-16T11:32:35;27.90;99.90
7388;DHT22;3735;50.136;11.062;2023-07-16T11:35:06;27.80;99.90
7388;DHT22;3735;50.136;11.062;2023-07-16T11:37:34;27.40;99.90
7388;DHT22;3735;50.136;11.062;2023-07-16T11:40:06;26.60;99.90
7388;DHT22;3735;50.136;11.062;2023-07-16T11:42:38;26.10;99.90
7388;DHT22;3735;50.136;11.062;2023-07-16T11:45:14;26.50;99.90
7388;DHT22;3735;50.136;11.062;2023-07-16T11:47:44;28.30;99.90
7388;DHT22;3735;50.136;11.062;2023-07-16T11:50:11;30.60;99.90
7388;DHT22;3735;50.136;11.062;2023-07-16T11:52:38;32.90;99.90
7388;DHT22;3735;50.136;11.062;2023-07-16T11:55:05;33.90;99.90
7388;DHT22;3735;50.136;11.062;2023-07-16T11:57:31;32.50;99.90
7388;DHT22;3735;50.136;11.062;2023-07-16T11:59:57;31.50;99.90
7388;DHT22;3735;50.136;11.062;2023-07-16T12:02:23;30.30;99.90
7388;DHT22;3735;50.136;11.062;2023-07-16T12:04:50;29.80;99.90
7388;DHT22;3735;50.136;11.062;2023-07-16T12:07:31;29.40;99.90
7388;DHT22;3735;50.136;11.062;2023-07-16T12:09:57;29.20;99.90
7388;DHT22;3735;50.136;11.062;2023-07-16T12:12:22;28.80;99.90
7388;DHT22;3735;50.136;11.062;2023-07-16T12:14:48;28.60;99.90
7388;DHT22;3735;50.136;11.062;2023-07-16T12:17:14;29.50;99.90
7388;DHT22;3735;50.136;11.062;2023-07-16T12:19:39;29.40;99.90
7388;DHT22;3735;50.136;11.062;2023-07-16T12:22:05;30.20;99.90
7388;DHT22;3735;50.136;11.062;2023-07-16T12:24:31;31.70;99.90
7388;DHT22;3735;50.136;11.062;2023-07-16T12:26:57;32.20;99.90
7388;DHT22;3735;50.136;11.062;2023-07-16T12:29:23;31.20;99.90
7388;DHT22;3735;50.136;11.062;2023-07-16T12:31:49;30.30;99.90
7388;DHT22;3735;50.136;11.062;2023-07-16T12:34:15;29.10;99.90
7388;DHT22;3735;50.136;11.062;2023-07-16T12:36:41;29.20;99.90
7388;DHT22;3735;50.136;11.062;2023-07-16T12:39:07;28.70;99.90
7388;DHT22;3735;50.136;11.062;2023-07-16T12:41:32;28.70;99.90
7388;DHT22;3735;50.136;11.062;2023-07-16T12:43:58;30.10;99.90
7388;DHT22;3735;50.136;11.062;2023-07-16T12:46:24;31.90;99.90
7388;DHT22;3735;50.136;11.062;2023-07-16T12:48:49;33.10;99.90
7388;DHT22;3735;50.136;11.062;2023-07-16T12:51:15;33.80;99.90
7388;DHT22;3735;50.136;11.062;2023-07-16T12:53:41;34.50;99.90
7388;DHT22;3735;50.136;11.062;2023-07-16T12:56:09;34.00;99.90
7388;DHT22;3735;50.136;11.062;2023-07-16T12:58:35;33.40;99.90
7388;DHT22;3735;50.136;11.062;2023-07-16T13:01:01;33.30;99.90
7388;DHT22;3735;50.136;11.062;2023-07-16T13:03:27;33.20;99.90
7388;DHT22;3735;50.136;11.062;2023-07-16T13:05:52;33.40;99.90
7388;DHT22;3735;50.136;11.062;2023-07-16T13:08:18;33.30;99.90
7388;DHT22;3735;50.136;11.062;2023-07-16T13:10:44;33.90;99.90
7388;DHT22;3735;50.136;11.062;2023-07-16T13:13:10;34.10;99.90
7388;DHT22;3735;50.136;11.062;2023-07-16T13:15:35;34.40;99.90
7388;DHT22;3735;50.136;11.062;2023-07-16T13:18:01;34.60;99.90
7388;DHT22;3735;50.136;11.062;2023-07-16T13:20:28;34.90;99.90
7388;DHT22;3735;50.136;11.062;2023-07-16T13:22:55;34.50;99.90
7388;DHT22;3735;50.136;11.062;2023-07-16T13:25:21;34.80;99.90
7388;DHT22;3735;50.136;11.062;2023-07-16T13:27:47;34.90;99.90
7388;DHT22;3735;50.136;11.062;2023-07-16T13:30:14;33.80;99.90
7388;DHT22;3735;50.136;11.062;2023-07-16T13:32:40;32.70;99.90
7388;DHT22;3735;50.136;11.062;2023-07-16T13:35:06;32.90;99.90
7388;DHT22;3735;50.136;11.062;2023-07-16T13:37:32;33.10;99.90
7388;DHT22;3735;50.136;11.062;2023-07-16T13:39:58;33.70;99.90
7388;DHT22;3735;50.136;11.062;2023-07-16T13:42:26;33.90;99.90
7388;DHT22;3735;50.136;11.062;2023-07-16T13:44:52;34.40;99.90
7388;DHT22;3735;50.136;11.062;2023-07-16T13:47:18;34.60;99.90
7388;DHT22;3735;50.136;11.062;2023-07-16T13:49:44;34.40;99.90
7388;DHT22;3735;50.136;11.062;2023-07-16T13:52:09;34.30;99.90
7388;DHT22;3735;50.136;11.062;2023-07-16T13:54:35;34.10;99.90
7388;DHT22;3735;50.136;11.062;2023-07-16T13:57:01;34.20;99.90
7388;DHT22;3735;50.136;11.062;2023-07-16T13:59:27;34.10;99.90
7388;DHT22;3735;50.136;11.062;2023-07-16T14:02:00;32.50;99.90
7388;DHT22;3735;50.136;11.062;2023-07-16T14:04:27;32.00;99.90
7388;DHT22;3735;50.136;11.062;2023-07-16T14:06:53;33.00;99.90
7388;DHT22;3735;50.136;11.062;2023-07-16T14:09:20;33.80;99.90
7388;DHT22;3735;50.136;11.062;2023-07-16T14:11:46;33.90;99.90
7388;DHT22;3735;50.136;11.062;2023-07-16T14:14:17;32.30;99.90
7388;DHT22;3735;50.136;11.062;2023-07-16T14:16:43;31.00;99.90
7388;DHT22;3735;50.136;11.062;2023-07-16T14:19:10;30.60;99.90
7388;DHT22;3735;50.136;11.062;2023-07-16T14:21:37;31.50;99.90
7388;DHT22;3735;50.136;11.062;2023-07-16T14:24:04;31.90;99.90
7388;DHT22;3735;50.136;11.062;2023-07-16T14:26:30;32.20;99.90
7388;DHT22;3735;50.136;11.062;2023-07-16T14:28:56;32.60;99.90
7388;DHT22;3735;50.136;11.062;2023-07-16T14:31:22;32.30;99.90
7388;DHT22;3735;50.136;11.062;2023-07-16T14:33:48;32.50;99.90
7388;DHT22;3735;50.136;11.062;2023-07-16T14:36:14;32.80;99.90
7388;DHT22;3735;50.136;11.062;2023-07-16T14:38:40;32.60;99.90
7388;DHT22;3735;50.136;11.062;2023-07-16T14:41:06;32.40;99.90
7388;DHT22;3735;50.136;11.062;2023-07-16T14:43:33;32.30;99.90
7388;DHT22;3735;50.136;11.062;2023-07-16T14:45:59;31.60;99.90
7388;DHT22;3735;50.136;11.062;2023-07-16T14:48:25;32.20;99.90
7388;DHT22;3735;50.136;11.062;2023-07-16T14:50:54;32.90;99.90
7388;DHT22;3735;50.136;11.062;2023-07-16T14:53:20;33.20;99.90
7388;DHT22;3735;50.136;11.062;2023-07-16T14:55:49;33.20;99.90
7388;DHT22;3735;50.136;11.062;2023-07-16T14:58:19;33.50;99.90
7388;DHT22;3735;50.136;11.062;2023-07-16T15:00:48;33.40;99.90
7388;DHT22;3735;50.136;11.062;2023-07-16T15:03:14;33.50;99.90
7388;DHT22;3735;50.136;11.062;2023-07-16T15:05:40;33.30;99.90
7388;DHT22;3735;50.136;11.062;2023-07-16T15:08:06;32.60;99.90
7388;DHT22;3735;50.136;11.062;2023-07-16T15:10:32;32.10;99.90
7388;DHT22;3735;50.136;11.062;2023-07-16T15:12:58;32.60;99.90
7388;DHT22;3735;50.136;11.062;2023-07-16T15:15:24;32.80;99.90
7388;DHT22;3735;50.136;11.062;2023-07-16T15:17:50;33.10;99.90
7388;DHT22;3735;50.136;11.062;2023-07-16T15:20:16;33.10;99.90
7388;DHT22;3735;50.136;11.062;2023-07-16T15:22:43;33.20;99.90
7388;DHT22;3735;50.136;11.062;2023-07-16T15:25:09;32.70;99.90
7388;DHT22;3735;50.136;11.062;2023-07-16T15:27:35;32.50;99.90
7388;DHT22;3735;50.136;11.062;2023-07-16T15:30:01;32.60;99.90
7388;DHT22;3735;50.136;11.062;2023-07-16T15:32:27;32.20;99.90
7388;DHT22;3735;50.136;11.062;2023-07-16T15:34:53;32.50;99.90
7388;DHT22;3735;50.136;11.062;2023-07-16T15:37:19;33.00;99.90
7388;DHT22;3735;50.136;11.062;2023-07-16T15:39:45;33.00;99.90
7388;DHT22;3735;50.136;11.062;2023-07-16T15:42:10;33.00;99.90
7388;DHT22;3735;50.136;11.062;2023-07-16T15:44:36;32.70;99.90
7388;DHT22;3735;50.136;11.062;2023-07-16T15:47:02;32.30;99.90
7388;DHT22;3735;50.136;11.062;2023-07-16T15:49:28;31.90;99.90